createdAt,value
2022-12-03T00:00:00.395Z,84
2022-12-03T00:10:00.227Z,83
2022-12-03T00:15:00.239Z,83
2022-12-03T00:20:00.344Z,83
2022-12-03T00:25:00.325Z,83
2022-12-03T00:30:00.246Z,83
2022-12-03T00:35:00.480Z,83
2022-12-03T00:40:00.346Z,83
2022-12-03T00:45:00.299Z,83
2022-12-03T00:50:00.161Z,83
2022-12-03T00:55:00.236Z,83
2022-12-03T01:00:00.359Z,83
2022-12-03T01:05:00.283Z,82
2022-12-03T01:10:00.243Z,82
2022-12-03T01:15:00.303Z,82
2022-12-03T01:20:00.276Z,82
2022-12-03T01:25:00.218Z,82
2022-12-03T01:30:00.300Z,82
2022-12-03T01:35:00.229Z,82
2022-12-03T01:40:00.340Z,82
2022-12-03T01:45:00.220Z,82
2022-12-03T01:50:00.405Z,82
2022-12-03T01:55:00.262Z,82
2022-12-03T02:00:00.333Z,82
2022-12-03T02:05:00.278Z,82
2022-12-03T02:10:00.256Z,82
2022-12-03T02:15:00.244Z,82
2022-12-03T02:20:00.284Z,82
2022-12-03T02:25:00.247Z,82
2022-12-03T02:30:00.260Z,82
2022-12-03T02:35:00.274Z,82
2022-12-03T02:40:00.604Z,82
2022-12-03T02:45:04.930Z,82
2022-12-03T02:50:00.253Z,81
2022-12-03T02:55:00.297Z,81
2022-12-03T03:00:00.304Z,81
2022-12-03T03:05:00.234Z,81
2022-12-03T03:10:00.272Z,81
2022-12-03T03:15:00.246Z,81
2022-12-03T03:20:00.191Z,81
2022-12-03T03:25:00.329Z,81
2022-12-03T03:30:00.262Z,81
2022-12-03T03:35:00.217Z,81
2022-12-03T03:40:00.272Z,81
2022-12-03T03:45:00.287Z,81
2022-12-03T03:50:00.258Z,81
2022-12-03T03:55:00.197Z,81
2022-12-03T04:00:00.307Z,81
2022-12-03T04:05:00.254Z,81
2022-12-03T04:10:00.266Z,81
2022-12-03T04:15:00.195Z,81
2022-12-03T04:20:00.331Z,81
2022-12-03T04:25:00.230Z,80
2022-12-03T04:30:00.282Z,81
2022-12-03T04:35:00.252Z,81
2022-12-03T04:40:00.297Z,80
2022-12-03T04:45:00.212Z,80
2022-12-03T04:50:00.581Z,80
2022-12-03T04:55:00.255Z,80
2022-12-03T05:00:00.340Z,81
2022-12-03T05:05:00.301Z,81
2022-12-03T05:10:00.220Z,81
2022-12-03T05:15:00.281Z,80
2022-12-03T05:20:00.307Z,80
2022-12-03T05:25:00.264Z,81
2022-12-03T05:30:00.260Z,81
2022-12-03T05:35:00.197Z,81
2022-12-03T05:40:00.305Z,81
2022-12-03T05:45:00.284Z,81
2022-12-03T05:50:00.248Z,81
2022-12-03T05:55:00.244Z,81
2022-12-03T06:00:00.339Z,81
2022-12-03T06:05:00.234Z,81
2022-12-03T06:10:00.207Z,81
2022-12-03T06:15:00.227Z,81
2022-12-03T06:20:00.283Z,81
2022-12-03T06:25:06.203Z,81
2022-12-03T06:30:00.259Z,81
2022-12-03T06:35:00.197Z,81
2022-12-03T06:40:00.309Z,81
2022-12-03T06:45:00.227Z,81
2022-12-03T06:50:00.241Z,81
2022-12-03T06:55:00.219Z,81
2022-12-03T07:00:00.313Z,81
2022-12-03T07:05:00.250Z,81
2022-12-03T07:10:00.262Z,81
2022-12-03T07:15:00.273Z,81
2022-12-03T07:20:00.286Z,81
2022-12-03T07:25:00.215Z,80
2022-12-03T07:30:00.241Z,81
2022-12-03T07:35:00.280Z,81
2022-12-03T07:40:00.265Z,80
2022-12-03T07:45:00.253Z,80
2022-12-03T07:50:00.274Z,80
2022-12-03T07:55:00.259Z,81
2022-12-03T08:00:00.314Z,80
2022-12-03T08:05:00.239Z,81
2022-12-03T08:10:00.249Z,80
2022-12-03T08:15:00.217Z,80
2022-12-03T08:20:00.295Z,80
2022-12-03T08:25:00.311Z,80
2022-12-03T08:30:00.260Z,80
2022-12-03T08:35:00.257Z,80
2022-12-03T08:40:00.308Z,80
2022-12-03T08:45:00.248Z,79
2022-12-03T08:50:00.288Z,80
2022-12-03T08:55:00.216Z,80
2022-12-03T09:00:00.348Z,80
2022-12-03T09:05:00.639Z,80
2022-12-03T09:10:00.201Z,79
2022-12-03T09:15:00.284Z,79
2022-12-03T09:20:00.303Z,79
2022-12-03T09:25:00.332Z,79
2022-12-03T09:30:00.202Z,79
2022-12-03T09:35:00.242Z,79
2022-12-03T09:40:00.329Z,79
2022-12-03T09:45:00.212Z,79
2022-12-03T09:50:00.252Z,79
2022-12-03T09:55:00.264Z,79
2022-12-03T10:00:00.369Z,79
2022-12-03T10:05:00.404Z,79
2022-12-03T10:10:00.283Z,79
2022-12-03T10:15:00.261Z,79
2022-12-03T10:20:00.318Z,79
2022-12-03T10:25:00.216Z,79
2022-12-03T10:30:00.288Z,79
2022-12-03T10:35:00.206Z,79
2022-12-03T10:40:00.350Z,79
2022-12-03T10:45:00.222Z,79
2022-12-03T10:50:00.233Z,79
2022-12-03T10:55:00.436Z,79
2022-12-03T11:00:00.477Z,79
2022-12-03T11:05:00.180Z,79
2022-12-03T11:10:00.220Z,79
2022-12-03T11:15:00.236Z,78
2022-12-03T11:20:00.271Z,78
2022-12-03T11:25:00.224Z,78
2022-12-03T11:30:00.346Z,78
2022-12-03T11:35:00.200Z,78
2022-12-03T11:40:00.299Z,78
2022-12-03T11:45:00.231Z,78
2022-12-03T11:50:00.222Z,78
2022-12-03T11:55:00.232Z,78
2022-12-03T12:00:00.384Z,78
2022-12-03T12:05:00.184Z,78
2022-12-03T12:10:00.243Z,77
2022-12-03T12:15:00.175Z,77
2022-12-03T12:20:00.615Z,77
2022-12-03T12:25:00.244Z,77
2022-12-03T12:30:00.271Z,77
2022-12-03T12:35:00.246Z,77
2022-12-03T12:40:00.281Z,77
2022-12-03T12:45:00.252Z,77
2022-12-03T12:50:00.245Z,77
2022-12-03T12:55:04.586Z,77
2022-12-03T13:00:00.294Z,77
2022-12-03T13:05:00.216Z,77
2022-12-03T13:10:00.313Z,77
2022-12-03T13:15:00.254Z,77
2022-12-03T13:20:07.144Z,77
2022-12-03T13:25:00.265Z,77
2022-12-03T13:30:00.251Z,77
2022-12-03T13:35:00.250Z,77
2022-12-03T13:40:00.275Z,77
2022-12-03T13:45:00.352Z,77
2022-12-03T13:50:00.260Z,77
2022-12-03T13:55:00.352Z,77
2022-12-03T14:00:00.326Z,77
2022-12-03T14:05:00.952Z,77
2022-12-03T14:10:00.346Z,77
2022-12-03T14:15:00.245Z,77
2022-12-03T14:20:00.272Z,77
2022-12-03T14:25:00.235Z,77
2022-12-03T14:30:00.229Z,77
2022-12-03T14:35:01.928Z,77
2022-12-03T14:40:00.279Z,77
2022-12-03T14:45:00.235Z,77
2022-12-03T14:50:00.277Z,77
2022-12-03T14:55:00.246Z,77
2022-12-03T15:00:00.299Z,77
2022-12-03T15:05:00.260Z,77
2022-12-03T15:10:00.190Z,77
2022-12-03T15:15:00.236Z,77
2022-12-03T15:20:00.271Z,77
2022-12-03T15:25:00.227Z,77
2022-12-03T15:30:00.226Z,77
2022-12-03T15:35:00.194Z,77
2022-12-03T15:40:00.273Z,77
2022-12-03T15:45:00.158Z,77
2022-12-03T15:50:00.162Z,77
2022-12-03T15:55:00.242Z,77
2022-12-03T16:00:00.301Z,77
2022-12-03T16:05:00.329Z,77
2022-12-03T16:10:00.253Z,77
2022-12-03T16:15:00.224Z,77
2022-12-03T16:20:00.273Z,77
2022-12-03T16:25:00.215Z,78
2022-12-03T16:30:00.213Z,77
2022-12-03T16:35:00.233Z,77
2022-12-03T16:40:00.251Z,77
2022-12-03T16:45:00.271Z,77
2022-12-03T16:50:00.169Z,77
2022-12-03T16:55:00.152Z,77
2022-12-03T17:00:00.492Z,77
2022-12-03T17:05:00.247Z,77
2022-12-03T17:10:00.335Z,77
2022-12-03T17:15:00.245Z,77
2022-12-03T17:20:00.404Z,77
2022-12-03T17:25:00.245Z,77
2022-12-03T17:30:00.487Z,77
2022-12-03T17:35:00.160Z,77
2022-12-03T17:40:00.264Z,77
2022-12-03T17:45:00.246Z,77
2022-12-03T17:50:00.261Z,77
2022-12-03T17:55:14.267Z,77
2022-12-03T18:00:00.338Z,77
2022-12-03T18:05:00.255Z,77
2022-12-03T18:10:00.278Z,78
2022-12-03T18:15:00.258Z,78
2022-12-03T18:20:00.352Z,77
2022-12-03T18:25:00.237Z,78
2022-12-03T18:30:00.240Z,78
2022-12-03T18:35:00.249Z,78
2022-12-03T18:40:00.397Z,78
2022-12-03T18:45:00.207Z,78
2022-12-03T18:50:00.418Z,78
2022-12-03T18:55:00.246Z,78
2022-12-03T19:00:00.396Z,78
2022-12-03T19:05:00.204Z,78
2022-12-03T19:10:00.236Z,78
2022-12-03T19:15:00.279Z,78
2022-12-03T19:20:00.289Z,78
2022-12-03T19:25:00.153Z,78
2022-12-03T19:30:00.281Z,78
2022-12-03T19:35:00.241Z,78
2022-12-03T19:40:00.241Z,78
2022-12-03T19:45:00.254Z,78
2022-12-03T19:50:00.243Z,78
2022-12-03T19:55:00.246Z,78
2022-12-03T20:00:00.310Z,78
2022-12-03T20:05:00.238Z,78
2022-12-03T20:10:00.238Z,78
2022-12-03T20:15:00.248Z,78
2022-12-03T20:20:00.261Z,78
2022-12-03T20:25:00.220Z,78
2022-12-03T20:30:00.237Z,78
2022-12-03T20:35:00.241Z,78
2022-12-03T20:40:00.266Z,78
2022-12-03T20:45:00.145Z,78
2022-12-03T20:50:00.248Z,78
2022-12-03T20:55:00.247Z,78
2022-12-03T21:00:00.307Z,78
2022-12-03T21:05:00.238Z,78
2022-12-03T21:10:00.210Z,78
2022-12-03T21:15:00.159Z,78
2022-12-03T21:20:00.260Z,78
2022-12-03T21:25:00.224Z,78
2022-12-03T21:30:00.242Z,78
2022-12-03T21:35:00.150Z,78
2022-12-03T21:40:00.269Z,78
2022-12-03T21:45:00.241Z,78
2022-12-03T21:50:00.196Z,78
2022-12-03T21:55:00.203Z,78
2022-12-03T22:00:00.272Z,78
2022-12-03T22:05:00.299Z,78
2022-12-03T22:10:00.171Z,78
2022-12-03T22:15:00.151Z,78
2022-12-03T22:20:00.250Z,78
2022-12-03T22:25:00.186Z,78
2022-12-03T22:30:00.201Z,78
2022-12-03T22:35:00.257Z,78
2022-12-03T22:40:00.205Z,78
2022-12-03T22:45:00.258Z,78
2022-12-03T22:50:00.271Z,78
2022-12-03T22:55:00.248Z,78
2022-12-03T23:00:00.313Z,78
2022-12-03T23:05:00.234Z,78
2022-12-03T23:10:00.242Z,78
2022-12-03T23:15:00.253Z,78
2022-12-03T23:20:00.760Z,78
2022-12-03T23:25:00.249Z,78
2022-12-03T23:30:00.214Z,78
2022-12-03T23:35:00.253Z,78
2022-12-03T23:40:00.207Z,78
2022-12-03T23:45:00.227Z,78
2022-12-03T23:50:00.244Z,78
2022-12-03T23:55:00.173Z,79
